createdAt,value
2022-09-27T00:01:11.645Z,15.70
2022-09-27T00:03:39.974Z,15.78
2022-09-27T00:06:10.317Z,15.78
2022-09-27T00:08:38.941Z,15.89
2022-09-27T00:11:13.648Z,15.65
2022-09-27T00:13:41.716Z,15.81
2022-09-27T00:16:11.010Z,15.70
2022-09-27T00:18:39.011Z,15.78
2022-09-27T00:21:09.084Z,15.85
2022-09-27T00:23:37.240Z,15.77
2022-09-27T00:26:06.111Z,15.97
2022-09-27T00:28:36.157Z,15.97
2022-09-27T00:31:04.278Z,15.57
2022-09-27T00:33:32.404Z,15.77
2022-09-27T00:36:05.839Z,15.78
2022-09-27T00:38:33.835Z,15.71
2022-09-27T00:41:02.111Z,15.77
2022-09-27T00:43:47.588Z,15.51
2022-09-27T00:46:20.179Z,15.84
2022-09-27T00:48:49.560Z,15.59
2022-09-27T00:51:17.810Z,15.31
2022-09-27T00:53:52.775Z,15.57
2022-09-27T00:56:27.708Z,15.41
2022-09-27T00:59:00.922Z,15.57
2022-09-27T01:01:30.547Z,15.49
2022-09-27T01:04:04.816Z,15.39
2022-09-27T01:06:32.941Z,15.36
2022-09-27T01:09:00.920Z,15.49
2022-09-27T01:11:39.704Z,15.72
2022-09-27T01:14:42.430Z,15.76
2022-09-27T01:17:27.261Z,15.53
2022-09-27T01:20:41.244Z,15.45
2022-09-27T01:23:30.819Z,15.24
2022-09-27T01:26:14.427Z,15.59
2022-09-27T01:29:05.629Z,15.63
2022-09-27T01:31:42.389Z,15.27
2022-09-27T01:34:19.150Z,15.63
2022-09-27T01:36:55.773Z,15.66
2022-09-27T01:39:35.058Z,15.66
2022-09-27T01:42:38.203Z,15.59
2022-09-27T01:45:11.819Z,15.67
2022-09-27T01:47:54.102Z,15.80
2022-09-27T01:50:44.481Z,15.67
2022-09-27T01:53:19.133Z,15.66
2022-09-27T01:56:28.162Z,15.74
2022-09-27T01:59:08.717Z,15.70
2022-09-27T02:01:41.471Z,15.75
2022-09-27T02:04:14.912Z,15.82
2022-09-27T02:07:06.825Z,15.66
2022-09-27T02:09:40.389Z,15.79
2022-09-27T02:12:22.822Z,15.59
2022-09-27T02:14:56.690Z,15.77
2022-09-27T02:17:36.180Z,15.84
2022-09-27T02:20:12.613Z,15.81
2022-09-27T02:22:52.323Z,15.78
2022-09-27T02:25:25.519Z,15.81
2022-09-27T02:28:02.199Z,15.82
2022-09-27T02:30:35.520Z,15.56
2022-09-27T02:33:17.188Z,15.66
2022-09-27T02:35:47.139Z,15.80
2022-09-27T02:38:15.400Z,15.89
2022-09-27T02:40:46.905Z,15.89
2022-09-27T02:43:17.828Z,15.92
2022-09-27T02:45:58.287Z,15.95
2022-09-27T02:48:32.877Z,15.84
2022-09-27T02:51:25.167Z,15.84
2022-09-27T02:54:06.663Z,15.82
2022-09-27T02:57:04.300Z,15.86
2022-09-27T03:00:01.278Z,15.82
2022-09-27T03:02:52.329Z,15.78
2022-09-27T03:05:40.979Z,15.84
2022-09-27T03:08:12.471Z,15.74
2022-09-27T03:10:41.080Z,15.88
2022-09-27T03:13:09.476Z,15.66
2022-09-27T03:15:38.004Z,15.65
2022-09-27T03:18:06.346Z,16.02
2022-09-27T03:20:42.984Z,15.93
2022-09-27T03:23:18.937Z,16.07
2022-09-27T03:25:47.225Z,15.90
2022-09-27T03:28:15.529Z,15.93
2022-09-27T03:30:46.410Z,16.08
2022-09-27T03:33:22.559Z,15.78
2022-09-27T03:35:59.995Z,15.83
2022-09-27T03:38:29.529Z,15.62
2022-09-27T03:40:57.844Z,15.85
2022-09-27T03:43:26.397Z,15.88
2022-09-27T03:45:58.944Z,15.83
2022-09-27T03:48:28.279Z,15.78
2022-09-27T03:50:56.439Z,15.70
2022-09-27T03:53:24.715Z,15.65
2022-09-27T03:55:54.564Z,15.53
2022-09-27T03:58:22.632Z,15.69
2022-09-27T04:00:50.645Z,15.23
2022-09-27T04:03:19.895Z,15.28
2022-09-27T04:06:08.514Z,15.28
2022-09-27T04:08:40.566Z,15.34
2022-09-27T04:11:10.044Z,15.18
2022-09-27T04:13:40.380Z,15.40
2022-09-27T04:16:09.587Z,15.17
2022-09-27T04:19:07.362Z,14.98
2022-09-27T04:21:38.059Z,15.28
2022-09-27T04:24:07.307Z,15.14
2022-09-27T04:26:37.709Z,15.32
2022-09-27T04:29:14.508Z,15.30
2022-09-27T04:31:49.318Z,15.42
2022-09-27T04:34:46.075Z,15.29
2022-09-27T04:37:16.176Z,15.46
2022-09-27T04:39:50.210Z,15.27
2022-09-27T04:42:19.897Z,15.05
2022-09-27T04:44:48.876Z,15.24
2022-09-27T04:47:17.409Z,15.12
2022-09-27T04:49:45.506Z,15.15
2022-09-27T04:52:15.481Z,14.88
2022-09-27T04:54:43.577Z,14.91
2022-09-27T04:57:14.563Z,14.66
2022-09-27T04:59:45.045Z,14.60
2022-09-27T05:02:14.363Z,14.91
2022-09-27T05:05:02.764Z,14.71
2022-09-27T05:07:36.785Z,14.72
2022-09-27T05:10:10.903Z,14.79
2022-09-27T05:12:38.881Z,14.85
2022-09-27T05:15:10.390Z,14.72
2022-09-27T05:17:58.237Z,14.75
2022-09-27T05:20:45.114Z,14.68
2022-09-27T05:23:24.265Z,14.62
2022-09-27T05:25:53.488Z,14.58
2022-09-27T05:28:21.467Z,14.54
2022-09-27T05:30:51.399Z,14.61
2022-09-27T05:33:22.095Z,14.68
2022-09-27T05:35:53.996Z,14.87
2022-09-27T05:38:25.636Z,14.94
2022-09-27T05:40:56.958Z,14.77
2022-09-27T05:43:26.242Z,14.75
2022-09-27T05:45:56.407Z,14.80
2022-09-27T05:48:24.795Z,14.61
2022-09-27T05:50:57.493Z,14.88
2022-09-27T05:53:25.536Z,14.56
2022-09-27T05:55:54.706Z,14.57
2022-09-27T05:58:30.422Z,14.49
2022-09-27T06:01:15.356Z,14.67
2022-09-27T06:04:02.248Z,14.67
2022-09-27T06:06:49.988Z,14.74
2022-09-27T06:09:18.742Z,14.82
2022-09-27T06:11:48.967Z,14.42
2022-09-27T06:14:18.395Z,14.54
2022-09-27T06:17:13.503Z,14.65
2022-09-27T06:19:45.217Z,14.49
2022-09-27T06:22:13.811Z,14.60
2022-09-27T06:24:58.349Z,14.51
2022-09-27T06:27:29.259Z,14.73
2022-09-27T06:30:10.029Z,14.74
2022-09-27T06:32:49.248Z,14.58
2022-09-27T06:35:25.554Z,14.65
2022-09-27T06:37:54.109Z,14.58
2022-09-27T06:40:24.755Z,14.73
2022-09-27T06:43:03.397Z,14.97
2022-09-27T06:45:50.421Z,14.80
2022-09-27T06:48:42.775Z,14.51
2022-09-27T06:51:18.220Z,14.79
2022-09-27T06:53:46.192Z,14.85
2022-09-27T06:56:14.999Z,14.64
2022-09-27T06:59:06.386Z,14.79
2022-09-27T07:01:43.875Z,14.76
2022-09-27T07:04:42.498Z,14.77
2022-09-27T07:07:30.742Z,14.58
2022-09-27T07:09:59.463Z,14.66
2022-09-27T07:12:28.996Z,14.55
2022-09-27T07:14:57.027Z,14.72
2022-09-27T07:17:25.012Z,15.00
2022-09-27T07:19:55.492Z,15.07
2022-09-27T07:22:24.045Z,14.87
2022-09-27T07:24:59.480Z,14.95
2022-09-27T07:27:27.462Z,14.92
2022-09-27T07:29:56.299Z,14.84
2022-09-27T07:32:25.837Z,14.91
2022-09-27T07:34:55.998Z,14.94
2022-09-27T07:37:24.396Z,14.96
2022-09-27T07:39:55.199Z,14.84
2022-09-27T07:42:23.328Z,14.93
2022-09-27T07:44:54.271Z,14.78
2022-09-27T07:47:25.559Z,14.86
2022-09-27T07:50:24.191Z,15.04
2022-09-27T07:53:04.883Z,15.16
2022-09-27T07:55:53.055Z,15.02
2022-09-27T07:58:24.425Z,15.21
2022-09-27T08:00:56.266Z,14.97
2022-09-27T08:03:24.324Z,14.74
2022-09-27T08:05:53.777Z,15.13
2022-09-27T08:08:21.843Z,14.96
2022-09-27T08:10:51.819Z,15.26
2022-09-27T08:13:21.035Z,15.07
2022-09-27T08:15:52.588Z,14.98
2022-09-27T08:18:22.081Z,15.17
2022-09-27T08:21:11.795Z,15.01
2022-09-27T08:24:00.536Z,14.95
2022-09-27T08:26:54.095Z,14.84
2022-09-27T08:29:31.950Z,14.74
2022-09-27T08:31:59.969Z,14.73
2022-09-27T08:34:28.358Z,15.06
2022-09-27T08:36:57.864Z,14.99
2022-09-27T08:39:26.108Z,15.08
2022-09-27T08:42:03.024Z,15.14
2022-09-27T08:44:38.995Z,14.89
2022-09-27T08:47:19.503Z,15.10
2022-09-27T08:49:53.709Z,15.32
2022-09-27T08:52:28.925Z,14.78
2022-09-27T08:55:03.612Z,15.17
2022-09-27T08:57:31.790Z,15.16
2022-09-27T09:00:06.243Z,14.88
2022-09-27T09:02:36.108Z,14.93
2022-09-27T09:05:09.474Z,15.01
2022-09-27T09:07:56.745Z,14.94
2022-09-27T09:10:58.102Z,15.04
2022-09-27T09:13:41.715Z,15.28
2022-09-27T09:16:15.817Z,15.22
2022-09-27T09:19:06.971Z,15.49
2022-09-27T09:21:51.051Z,15.18
2022-09-27T09:24:35.621Z,15.26
2022-09-27T09:27:08.987Z,15.24
2022-09-27T09:29:51.023Z,15.27
2022-09-27T09:32:29.675Z,15.61
2022-09-27T09:35:02.934Z,15.59
2022-09-27T09:37:38.797Z,15.57
2022-09-27T09:40:18.948Z,15.72
2022-09-27T09:42:53.985Z,15.86
2022-09-27T09:45:23.919Z,16.06
2022-09-27T09:47:58.745Z,15.89
2022-09-27T09:50:31.267Z,15.92
2022-09-27T09:53:04.194Z,15.67
2022-09-27T09:55:37.524Z,15.66
2022-09-27T09:58:20.044Z,15.52
2022-09-27T10:00:54.865Z,15.66
2022-09-27T10:03:24.433Z,15.85
2022-09-27T10:05:52.992Z,15.86
2022-09-27T10:08:22.869Z,15.68
2022-09-27T10:11:01.972Z,15.75
2022-09-27T10:13:53.126Z,16.02
2022-09-27T10:16:22.623Z,16.60
2022-09-27T10:18:56.602Z,16.81
2022-09-27T10:21:30.106Z,16.65
2022-09-27T10:24:11.232Z,16.64
2022-09-27T10:27:12.404Z,16.26
2022-09-27T10:29:41.517Z,16.47
2022-09-27T10:32:27.290Z,16.30
2022-09-27T10:35:36.847Z,16.31
2022-09-27T10:38:21.654Z,16.45
2022-09-27T10:40:51.720Z,16.48
2022-09-27T10:43:30.738Z,16.49
2022-09-27T10:46:23.004Z,16.84
2022-09-27T10:49:12.886Z,16.85
2022-09-27T10:51:41.704Z,16.75
2022-09-27T10:54:22.261Z,16.42
2022-09-27T10:57:04.277Z,16.48
2022-09-27T10:59:37.341Z,16.42
2022-09-27T11:02:07.044Z,16.81
2022-09-27T11:05:05.400Z,16.89
2022-09-27T11:07:38.254Z,16.58
2022-09-27T11:10:28.680Z,16.59
2022-09-27T11:13:14.396Z,16.60
2022-09-27T11:16:06.175Z,16.58
2022-09-27T11:18:45.224Z,16.62
2022-09-27T11:21:24.687Z,16.67
2022-09-27T11:24:10.940Z,16.65
2022-09-27T11:26:52.493Z,16.52
2022-09-27T11:29:30.663Z,16.61
2022-09-27T11:32:47.650Z,16.43
2022-09-27T11:35:34.480Z,16.44
2022-09-27T11:38:24.803Z,16.30
2022-09-27T11:41:23.588Z,16.19
2022-09-27T11:44:17.874Z,15.88
2022-09-27T11:46:53.972Z,15.23
2022-09-27T11:49:53.994Z,14.98
2022-09-27T11:52:38.383Z,14.77
2022-09-27T11:55:23.221Z,14.44
2022-09-27T11:58:01.871Z,14.66
2022-09-27T12:00:46.413Z,14.47
2022-09-27T12:03:53.347Z,14.73
2022-09-27T12:06:38.251Z,14.68
2022-09-27T12:09:10.333Z,14.75
2022-09-27T12:11:42.245Z,14.58
2022-09-27T12:14:21.627Z,14.62
2022-09-27T12:16:55.867Z,14.74
2022-09-27T12:19:28.412Z,14.73
2022-09-27T12:22:15.253Z,14.79
2022-09-27T12:24:49.994Z,14.78
2022-09-27T12:27:59.113Z,14.85
2022-09-27T12:30:28.079Z,15.10
2022-09-27T12:33:07.056Z,15.42
2022-09-27T12:35:42.811Z,15.66
2022-09-27T12:38:15.820Z,15.50
2022-09-27T12:40:46.323Z,15.68
2022-09-27T12:43:20.578Z,16.05
2022-09-27T12:46:16.096Z,16.27
2022-09-27T12:48:55.405Z,16.21
2022-09-27T12:51:25.829Z,16.09
2022-09-27T12:54:25.952Z,15.89
2022-09-27T12:57:02.026Z,15.66
2022-09-27T12:59:52.545Z,15.74
2022-09-27T13:03:14.163Z,16.11
2022-09-27T13:05:56.163Z,16.46
2022-09-27T13:08:38.814Z,16.32
2022-09-27T13:11:20.302Z,16.30
2022-09-27T13:13:48.846Z,16.34
2022-09-27T13:16:17.697Z,16.01
2022-09-27T13:19:01.422Z,16.08
2022-09-27T13:21:59.676Z,16.04
2022-09-27T13:24:55.594Z,16.04
2022-09-27T13:27:44.657Z,16.17
2022-09-27T13:30:49.420Z,16.02
2022-09-27T13:33:44.492Z,15.94
2022-09-27T13:36:28.089Z,15.81
2022-09-27T13:39:23.630Z,15.93
2022-09-27T13:42:30.482Z,15.71
2022-09-27T13:45:20.170Z,15.82
2022-09-27T13:47:50.724Z,15.75
2022-09-27T13:50:40.817Z,15.84
2022-09-27T13:53:25.462Z,15.97
2022-09-27T13:55:53.867Z,15.87
2022-09-27T13:58:43.575Z,16.02
2022-09-27T14:01:37.938Z,16.06
2022-09-27T14:04:15.746Z,15.92
2022-09-27T14:06:48.039Z,15.77
2022-09-27T14:09:21.475Z,15.63
2022-09-27T14:12:01.290Z,15.71
2022-09-27T14:14:34.776Z,15.70
2022-09-27T14:17:10.139Z,15.71
2022-09-27T14:19:42.128Z,15.59
2022-09-27T14:22:15.186Z,15.72
2022-09-27T14:25:18.795Z,15.88
2022-09-27T14:27:50.523Z,16.08
2022-09-27T14:30:27.857Z,15.91
2022-09-27T14:33:30.122Z,15.78
2022-09-27T14:36:23.714Z,15.75
2022-09-27T14:38:58.601Z,15.63
2022-09-27T14:41:38.030Z,15.47
2022-09-27T14:44:05.988Z,15.82
2022-09-27T14:46:34.003Z,15.59
2022-09-27T14:49:19.473Z,15.83
2022-09-27T14:51:53.106Z,15.35
2022-09-27T14:54:25.213Z,15.34
2022-09-27T14:56:54.673Z,15.47
2022-09-27T14:59:30.694Z,15.43
2022-09-27T15:02:01.787Z,15.42
2022-09-27T15:04:33.107Z,15.45
2022-09-27T15:07:03.329Z,15.32
2022-09-27T15:09:33.287Z,15.41
2022-09-27T15:12:05.025Z,15.43
2022-09-27T15:14:34.263Z,15.41
2022-09-27T15:17:05.878Z,15.34
2022-09-27T15:19:35.464Z,15.24
2022-09-27T15:22:32.849Z,15.37
2022-09-27T15:25:19.378Z,15.31
2022-09-27T15:27:51.093Z,15.30
2022-09-27T15:30:21.512Z,15.21
2022-09-27T15:32:56.053Z,15.35
2022-09-27T15:35:34.021Z,15.43
2022-09-27T15:38:27.002Z,15.39
2022-09-27T15:41:10.085Z,15.46
2022-09-27T15:43:41.284Z,15.57
2022-09-27T15:46:34.046Z,15.46
2022-09-27T15:49:30.912Z,15.56
2022-09-27T15:52:01.782Z,15.54
2022-09-27T15:54:33.241Z,15.09
2022-09-27T15:57:04.524Z,14.96
2022-09-27T15:59:35.017Z,14.63
2022-09-27T16:02:08.200Z,14.28
2022-09-27T16:04:36.217Z,14.43
2022-09-27T16:07:08.952Z,14.84
2022-09-27T16:09:36.876Z,14.50
2022-09-27T16:12:04.882Z,14.42
2022-09-27T16:14:32.726Z,14.45
2022-09-27T16:17:00.585Z,14.57
2022-09-27T16:19:28.399Z,14.75
2022-09-27T16:21:56.214Z,14.73
2022-09-27T16:24:27.902Z,14.42
2022-09-27T16:26:55.731Z,14.52
2022-09-27T16:29:23.555Z,14.63
2022-09-27T16:31:53.558Z,14.52
2022-09-27T16:34:21.631Z,14.50
2022-09-27T16:36:51.056Z,14.53
2022-09-27T16:39:18.881Z,14.49
2022-09-27T16:41:48.274Z,14.55
2022-09-27T16:44:17.443Z,14.55
2022-09-27T16:46:46.248Z,14.60
2022-09-27T16:49:28.114Z,14.50
2022-09-27T16:52:01.576Z,14.40
2022-09-27T16:54:30.423Z,14.52
2022-09-27T16:57:00.556Z,14.34
2022-09-27T16:59:28.974Z,14.06
2022-09-27T17:01:58.069Z,14.29
2022-09-27T17:04:27.389Z,14.16
2022-09-27T17:06:55.291Z,14.29
2022-09-27T17:09:23.633Z,14.37
2022-09-27T17:11:52.066Z,14.10
2022-09-27T17:14:21.612Z,14.12
2022-09-27T17:16:50.502Z,14.06
2022-09-27T17:19:19.276Z,14.14
2022-09-27T17:21:47.587Z,14.14
2022-09-27T17:24:15.732Z,14.16
2022-09-27T17:26:44.098Z,14.12
2022-09-27T17:29:12.380Z,14.05
2022-09-27T17:31:42.838Z,14.24
2022-09-27T17:34:13.013Z,14.12
2022-09-27T17:36:43.092Z,14.08
2022-09-27T17:39:13.308Z,14.10
2022-09-27T17:41:41.153Z,14.06
2022-09-27T17:44:11.226Z,14.07
2022-09-27T17:46:39.265Z,14.03
2022-09-27T17:49:26.478Z,14.02
2022-09-27T17:51:55.174Z,14.05
2022-09-27T17:54:27.738Z,14.01
2022-09-27T17:56:56.321Z,13.83
2022-09-27T17:59:24.171Z,13.99
2022-09-27T18:01:52.153Z,13.98
2022-09-27T18:04:21.429Z,13.84
2022-09-27T18:06:49.325Z,13.87
2022-09-27T18:09:19.661Z,13.91
2022-09-27T18:11:48.203Z,13.90
2022-09-27T18:14:16.313Z,13.93
2022-09-27T18:16:44.928Z,13.90
2022-09-27T18:19:15.187Z,13.80
2022-09-27T18:21:44.740Z,13.91
2022-09-27T18:24:14.115Z,13.88
2022-09-27T18:26:42.206Z,13.93
2022-09-27T18:29:13.260Z,13.92
2022-09-27T18:31:47.426Z,13.84
2022-09-27T18:34:17.219Z,13.85
2022-09-27T18:36:47.569Z,13.87
2022-09-27T18:39:19.034Z,13.63
2022-09-27T18:41:48.617Z,13.74
2022-09-27T18:44:18.087Z,13.56
2022-09-27T18:46:46.806Z,13.69
2022-09-27T18:49:15.816Z,13.64
2022-09-27T18:51:47.094Z,13.52
2022-09-27T18:54:18.272Z,13.37
2022-09-27T18:56:47.089Z,13.47
2022-09-27T18:59:16.498Z,13.50
2022-09-27T19:01:45.760Z,13.67
2022-09-27T19:04:19.196Z,13.63
2022-09-27T19:06:51.489Z,13.64
2022-09-27T19:09:19.400Z,13.29
2022-09-27T19:11:47.350Z,13.31
2022-09-27T19:14:17.344Z,13.40
2022-09-27T19:16:46.983Z,13.27
2022-09-27T19:19:15.275Z,13.38
2022-09-27T19:21:43.556Z,13.19
2022-09-27T19:24:13.952Z,13.21
2022-09-27T19:26:42.097Z,13.15
2022-09-27T19:29:09.980Z,13.18
2022-09-27T19:31:37.885Z,13.31
2022-09-27T19:34:05.848Z,13.30
2022-09-27T19:36:33.638Z,13.25
2022-09-27T19:39:02.357Z,12.97
2022-09-27T19:41:31.621Z,12.96
2022-09-27T19:43:59.461Z,13.10
2022-09-27T19:46:27.751Z,13.05
2022-09-27T19:48:56.300Z,13.02
2022-09-27T19:51:26.420Z,13.02
2022-09-27T19:53:54.958Z,13.07
2022-09-27T19:56:23.914Z,13.02
2022-09-27T19:58:53.364Z,13.07
2022-09-27T20:01:23.226Z,13.05
2022-09-27T20:03:53.169Z,13.11
2022-09-27T20:06:22.236Z,13.01
2022-09-27T20:08:50.372Z,13.08
2022-09-27T20:11:19.608Z,12.99
2022-09-27T20:13:48.069Z,12.99
2022-09-27T20:16:19.632Z,13.09
2022-09-27T20:18:49.437Z,12.89
2022-09-27T20:21:18.667Z,12.89
2022-09-27T20:23:49.670Z,13.01
2022-09-27T20:26:19.613Z,13.10
2022-09-27T20:28:49.601Z,12.85
2022-09-27T20:31:20.623Z,12.90
2022-09-27T20:33:50.697Z,12.89
2022-09-27T20:36:20.310Z,12.57
2022-09-27T20:38:50.040Z,12.69
2022-09-27T20:41:20.186Z,12.61
2022-09-27T20:43:49.364Z,12.82
2022-09-27T20:46:20.103Z,12.82
2022-09-27T20:48:52.231Z,12.80
2022-09-27T20:51:20.721Z,12.91
2022-09-27T20:53:51.191Z,12.82
2022-09-27T20:56:21.194Z,12.90
2022-09-27T20:58:49.855Z,12.88
2022-09-27T21:01:19.817Z,12.92
2022-09-27T21:03:47.744Z,12.84
2022-09-27T21:06:16.221Z,12.95
2022-09-27T21:08:44.141Z,12.88
2022-09-27T21:11:14.903Z,12.86
2022-09-27T21:13:44.027Z,12.83
2022-09-27T21:16:14.581Z,12.88
2022-09-27T21:18:44.559Z,12.80
2022-09-27T21:21:14.059Z,12.78
2022-09-27T21:23:44.715Z,12.86
2022-09-27T21:26:14.956Z,12.86
2022-09-27T21:28:44.558Z,12.82
2022-09-27T21:31:20.123Z,12.93
2022-09-27T21:33:54.620Z,12.84
2022-09-27T21:36:23.394Z,12.76
2022-09-27T21:38:51.970Z,12.90
2022-09-27T21:41:20.226Z,12.79
2022-09-27T21:43:50.255Z,12.66
2022-09-27T21:46:20.362Z,12.72
2022-09-27T21:48:49.707Z,12.96
2022-09-27T21:51:23.387Z,12.96
2022-09-27T21:53:53.383Z,12.79
2022-09-27T21:56:23.248Z,12.84
2022-09-27T21:58:51.360Z,12.85
2022-09-27T22:01:22.200Z,12.91
2022-09-27T22:03:51.447Z,12.92
2022-09-27T22:06:22.595Z,12.99
2022-09-27T22:08:51.618Z,12.97
2022-09-27T22:11:21.781Z,12.94
2022-09-27T22:13:50.195Z,12.86
2022-09-27T22:16:20.161Z,12.73
2022-09-27T22:18:49.460Z,12.77
2022-09-27T22:21:21.662Z,12.68
2022-09-27T22:23:53.881Z,12.63
2022-09-27T22:26:23.466Z,12.56
2022-09-27T22:28:52.013Z,12.61
2022-09-27T22:31:20.940Z,12.60
2022-09-27T22:33:49.819Z,12.56
2022-09-27T22:36:18.305Z,12.36
2022-09-27T22:38:47.794Z,12.54
2022-09-27T22:41:16.080Z,12.40
2022-09-27T22:43:44.736Z,12.34
2022-09-27T22:46:13.123Z,12.56
2022-09-27T22:48:41.478Z,12.49
2022-09-27T22:51:09.999Z,12.54
2022-09-27T22:53:38.245Z,12.40
2022-09-27T22:56:09.404Z,12.34
2022-09-27T22:58:38.156Z,12.39
2022-09-27T23:01:10.287Z,12.36
2022-09-27T23:03:38.185Z,12.28
2022-09-27T23:06:07.812Z,12.35
2022-09-27T23:08:36.744Z,12.46
2022-09-27T23:11:08.705Z,12.57
2022-09-27T23:13:38.603Z,12.52
2022-09-27T23:16:08.934Z,12.53
2022-09-27T23:18:37.258Z,12.55
2022-09-27T23:21:08.276Z,12.57
2022-09-27T23:23:37.438Z,12.65
2022-09-27T23:26:08.672Z,12.72
2022-09-27T23:28:36.702Z,12.79
2022-09-27T23:31:08.054Z,12.72
2022-09-27T23:33:36.497Z,12.65
2022-09-27T23:36:04.440Z,12.71
2022-09-27T23:38:33.263Z,12.69
2022-09-27T23:41:01.852Z,12.82
2022-09-27T23:43:31.266Z,12.81
2022-09-27T23:45:59.268Z,12.68
2022-09-27T23:48:27.754Z,12.79
2022-09-27T23:50:56.741Z,12.83
2022-09-27T23:53:25.524Z,12.85
2022-09-27T23:56:03.872Z,12.80
2022-09-27T23:58:35.159Z,12.77
